sensor_id;sensor_type;location;lat;lon;timestamp;pressure;altitude;pressure_sealevel;temperature;humidity
55460;BME280;41326;45.302;-122.946;2022-07-29T00:00:44;100469.79;;;22.32;46.48
55460;BME280;41326;45.302;-122.946;2022-07-29T00:03:15;100462.50;;;22.32;46.19
55460;BME280;41326;45.302;-122.946;2022-07-29T00:05:46;100462.98;;;22.33;46.12
55460;BME280;41326;45.302;-122.946;2022-07-29T00:08:16;100462.78;;;22.27;45.65
55460;BME280;41326;45.302;-122.946;2022-07-29T00:10:46;100458.10;;;22.31;45.65
55460;BME280;41326;45.302;-122.946;2022-07-29T00:13:16;100453.04;;;22.29;45.89
55460;BME280;41326;45.302;-122.946;2022-07-29T00:15:46;100453.10;;;22.30;45.63
55460;BME280;41326;45.302;-122.946;2022-07-29T00:18:17;100454.35;;;22.30;45.71
55460;BME280;41326;45.302;-122.946;2022-07-29T00:20:47;100452.97;;;22.29;45.66
55460;BME280;41326;45.302;-122.946;2022-07-29T00:23:17;100447.51;;;22.27;45.52
55460;BME280;41326;45.302;-122.946;2022-07-29T00:25:47;100450.38;;;22.27;44.62
55460;BME280;41326;45.302;-122.946;2022-07-29T00:28:18;100448.93;;;22.31;45.29
55460;BME280;41326;45.302;-122.946;2022-07-29T00:30:48;100450.45;;;22.31;45.20
55460;BME280;41326;45.302;-122.946;2022-07-29T00:33:18;100448.84;;;22.28;44.39
55460;BME280;41326;45.302;-122.946;2022-07-29T00:35:49;100446.76;;;22.26;45.17
55460;BME280;41326;45.302;-122.946;2022-07-29T00:38:20;100444.39;;;22.29;45.24
55460;BME280;41326;45.302;-122.946;2022-07-29T00:40:50;100444.08;;;22.27;45.05
55460;BME280;41326;45.302;-122.946;2022-07-29T00:43:21;100443.13;;;22.24;45.21
55460;BME280;41326;45.302;-122.946;2022-07-29T00:45:52;100442.75;;;22.21;45.05
55460;BME280;41326;45.302;-122.946;2022-07-29T00:48:21;100442.36;;;22.25;45.07
55460;BME280;41326;45.302;-122.946;2022-07-29T00:50:52;100441.84;;;22.25;45.00
55460;BME280;41326;45.302;-122.946;2022-07-29T00:53:22;100440.36;;;22.21;45.34
55460;BME280;41326;45.302;-122.946;2022-07-29T00:55:53;100443.14;;;22.22;45.35
55460;BME280;41326;45.302;-122.946;2022-07-29T00:58:23;100440.61;;;22.21;45.71
55460;BME280;41326;45.302;-122.946;2022-07-29T01:00:53;100438.75;;;22.31;44.85
55460;BME280;41326;45.302;-122.946;2022-07-29T01:03:24;100435.65;;;22.31;45.30
55460;BME280;41326;45.302;-122.946;2022-07-29T01:05:54;100434.86;;;22.32;45.39
55460;BME280;41326;45.302;-122.946;2022-07-29T01:08:26;100435.70;;;22.33;45.54
55460;BME280;41326;45.302;-122.946;2022-07-29T01:10:56;100433.66;;;22.35;45.11
55460;BME280;41326;45.302;-122.946;2022-07-29T01:13:26;100431.97;;;22.33;45.60
55460;BME280;41326;45.302;-122.946;2022-07-29T01:16:02;100431.18;;;22.30;44.66
55460;BME280;41326;45.302;-122.946;2022-07-29T01:18:30;100431.31;;;22.38;45.57
55460;BME280;41326;45.302;-122.946;2022-07-29T01:26:05;100427.40;;;22.50;45.27
55460;BME280;41326;45.302;-122.946;2022-07-29T01:31:00;100428.77;;;22.58;44.61
55460;BME280;41326;45.302;-122.946;2022-07-29T01:33:30;100425.32;;;22.58;44.79
55460;BME280;41326;45.302;-122.946;2022-07-29T01:35:59;100426.75;;;22.58;44.52
55460;BME280;41326;45.302;-122.946;2022-07-29T01:38:30;100429.59;;;22.61;44.43
55460;BME280;41326;45.302;-122.946;2022-07-29T01:41:05;100429.01;;;22.58;44.40
55460;BME280;41326;45.302;-122.946;2022-07-29T01:43:36;100426.27;;;22.60;44.10
55460;BME280;41326;45.302;-122.946;2022-07-29T01:46:04;100423.50;;;22.55;44.35
55460;BME280;41326;45.302;-122.946;2022-07-29T01:48:37;100416.89;;;22.57;44.53
55460;BME280;41326;45.302;-122.946;2022-07-29T01:51:06;100411.86;;;22.52;44.87
55460;BME280;41326;45.302;-122.946;2022-07-29T01:53:35;100410.73;;;22.45;45.12
55460;BME280;41326;45.302;-122.946;2022-07-29T01:56:03;100409.68;;;22.39;45.11
55460;BME280;41326;45.302;-122.946;2022-07-29T01:58:34;100407.69;;;22.38;45.52
55460;BME280;41326;45.302;-122.946;2022-07-29T02:01:04;100405.08;;;22.32;45.61
55460;BME280;41326;45.302;-122.946;2022-07-29T02:03:34;100406.42;;;22.28;46.00
55460;BME280;41326;45.302;-122.946;2022-07-29T02:06:05;100405.73;;;22.26;45.77
55460;BME280;41326;45.302;-122.946;2022-07-29T02:08:36;100407.30;;;22.21;45.95
55460;BME280;41326;45.302;-122.946;2022-07-29T02:11:06;100407.14;;;22.18;46.00
55460;BME280;41326;45.302;-122.946;2022-07-29T02:13:37;100407.98;;;22.14;45.99
55460;BME280;41326;45.302;-122.946;2022-07-29T02:16:06;100407.99;;;22.15;45.88
55460;BME280;41326;45.302;-122.946;2022-07-29T02:18:38;100407.67;;;22.13;45.67
55460;BME280;41326;45.302;-122.946;2022-07-29T02:21:08;100407.99;;;22.11;46.00
55460;BME280;41326;45.302;-122.946;2022-07-29T02:23:38;100410.58;;;22.10;45.95
55460;BME280;41326;45.302;-122.946;2022-07-29T02:26:08;100414.01;;;22.07;45.32
55460;BME280;41326;45.302;-122.946;2022-07-29T02:28:39;100413.10;;;22.08;45.88
55460;BME280;41326;45.302;-122.946;2022-07-29T02:31:09;100413.67;;;22.05;46.01
55460;BME280;41326;45.302;-122.946;2022-07-29T02:33:39;100413.49;;;22.03;45.88
55460;BME280;41326;45.302;-122.946;2022-07-29T02:36:09;100411.97;;;22.00;45.85
55460;BME280;41326;45.302;-122.946;2022-07-29T02:38:41;100414.68;;;22.01;45.98
55460;BME280;41326;45.302;-122.946;2022-07-29T02:41:12;100419.69;;;21.97;45.97
55460;BME280;41326;45.302;-122.946;2022-07-29T02:43:41;100414.86;;;21.94;45.96
55460;BME280;41326;45.302;-122.946;2022-07-29T02:46:14;100416.27;;;21.94;46.24
55460;BME280;41326;45.302;-122.946;2022-07-29T02:48:44;100421.23;;;21.96;45.99
55460;BME280;41326;45.302;-122.946;2022-07-29T02:51:13;100428.54;;;21.98;45.62
55460;BME280;41326;45.302;-122.946;2022-07-29T02:53:43;100427.75;;;21.96;45.97
55460;BME280;41326;45.302;-122.946;2022-07-29T02:56:14;100423.47;;;21.91;45.85
55460;BME280;41326;45.302;-122.946;2022-07-29T02:58:45;100424.55;;;21.92;45.88
55460;BME280;41326;45.302;-122.946;2022-07-29T03:01:23;100431.63;;;21.91;45.63
55460;BME280;41326;45.302;-122.946;2022-07-29T03:03:44;100431.29;;;21.86;45.72
55460;BME280;41326;45.302;-122.946;2022-07-29T03:06:13;100428.10;;;21.84;45.73
55460;BME280;41326;45.302;-122.946;2022-07-29T03:08:43;100424.71;;;21.81;46.05
55460;BME280;41326;45.302;-122.946;2022-07-29T03:11:14;100431.32;;;21.82;45.99
55460;BME280;41326;45.302;-122.946;2022-07-29T03:13:44;100438.33;;;21.81;45.48
55460;BME280;41326;45.302;-122.946;2022-07-29T03:16:18;100438.64;;;21.78;45.86
55460;BME280;41326;45.302;-122.946;2022-07-29T03:18:44;100434.66;;;21.77;45.66
55460;BME280;41326;45.302;-122.946;2022-07-29T03:21:15;100435.77;;;21.76;45.80
55460;BME280;41326;45.302;-122.946;2022-07-29T03:23:49;100439.60;;;21.78;45.78
55460;BME280;41326;45.302;-122.946;2022-07-29T03:26:16;100439.63;;;21.76;45.74
55460;BME280;41326;45.302;-122.946;2022-07-29T03:28:46;100441.08;;;21.73;45.68
55460;BME280;41326;45.302;-122.946;2022-07-29T03:31:18;100443.37;;;21.69;45.92
55460;BME280;41326;45.302;-122.946;2022-07-29T03:33:47;100445.90;;;21.63;45.21
55460;BME280;41326;45.302;-122.946;2022-07-29T03:36:18;100449.61;;;21.60;45.58
55460;BME280;41326;45.302;-122.946;2022-07-29T03:38:49;100450.23;;;21.62;46.10
55460;BME280;41326;45.302;-122.946;2022-07-29T03:41:18;100451.26;;;21.62;45.96
55460;BME280;41326;45.302;-122.946;2022-07-29T03:43:48;100453.25;;;21.61;47.20
55460;BME280;41326;45.302;-122.946;2022-07-29T03:46:22;100454.81;;;21.64;46.98
55460;BME280;41326;45.302;-122.946;2022-07-29T03:48:52;100458.20;;;21.62;46.76
55460;BME280;41326;45.302;-122.946;2022-07-29T03:51:19;100459.17;;;21.58;46.87
55460;BME280;41326;45.302;-122.946;2022-07-29T03:53:49;100457.11;;;21.57;46.66
55460;BME280;41326;45.302;-122.946;2022-07-29T03:56:21;100460.01;;;21.55;46.80
55460;BME280;41326;45.302;-122.946;2022-07-29T03:58:51;100461.84;;;21.54;46.97
55460;BME280;41326;45.302;-122.946;2022-07-29T04:01:21;100466.02;;;21.54;46.76
55460;BME280;41326;45.302;-122.946;2022-07-29T04:03:51;100461.01;;;21.50;46.96
55460;BME280;41326;45.302;-122.946;2022-07-29T04:06:21;100457.02;;;21.49;46.78
55460;BME280;41326;45.302;-122.946;2022-07-29T04:08:52;100455.46;;;21.42;46.69
55460;BME280;41326;45.302;-122.946;2022-07-29T04:11:22;100455.93;;;21.37;46.89
55460;BME280;41326;45.302;-122.946;2022-07-29T04:13:52;100458.39;;;21.30;46.80
55460;BME280;41326;45.302;-122.946;2022-07-29T04:16:23;100458.85;;;21.32;46.86
55460;BME280;41326;45.302;-122.946;2022-07-29T04:18:53;100458.84;;;21.31;46.36
55460;BME280;41326;45.302;-122.946;2022-07-29T04:21:24;100458.49;;;21.29;46.39
55460;BME280;41326;45.302;-122.946;2022-07-29T04:23:54;100456.59;;;21.25;45.57
55460;BME280;41326;45.302;-122.946;2022-07-29T04:26:25;100456.70;;;21.23;46.48
55460;BME280;41326;45.302;-122.946;2022-07-29T04:28:55;100459.19;;;21.22;46.34
55460;BME280;41326;45.302;-122.946;2022-07-29T04:31:25;100461.06;;;21.20;45.35
55460;BME280;41326;45.302;-122.946;2022-07-29T04:33:55;100466.36;;;21.17;46.39
55460;BME280;41326;45.302;-122.946;2022-07-29T04:36:26;100469.61;;;21.15;46.30
55460;BME280;41326;45.302;-122.946;2022-07-29T04:38:56;100471.06;;;21.12;46.64
55460;BME280;41326;45.302;-122.946;2022-07-29T04:41:27;100474.09;;;21.08;46.73
55460;BME280;41326;45.302;-122.946;2022-07-29T04:43:57;100482.34;;;21.03;45.93
55460;BME280;41326;45.302;-122.946;2022-07-29T04:46:28;100485.93;;;21.04;46.13
55460;BME280;41326;45.302;-122.946;2022-07-29T04:48:58;100484.38;;;21.03;45.97
55460;BME280;41326;45.302;-122.946;2022-07-29T04:52:36;100486.92;;;20.99;46.20
55460;BME280;41326;45.302;-122.946;2022-07-29T04:55:06;100487.58;;;20.98;46.49
55460;BME280;41326;45.302;-122.946;2022-07-29T04:57:36;100488.79;;;20.95;45.97
55460;BME280;41326;45.302;-122.946;2022-07-29T05:00:07;100490.82;;;20.91;45.16
55460;BME280;41326;45.302;-122.946;2022-07-29T05:02:37;100496.30;;;20.90;45.99
55460;BME280;41326;45.302;-122.946;2022-07-29T05:05:08;100498.44;;;20.88;45.87
55460;BME280;41326;45.302;-122.946;2022-07-29T05:07:37;100499.38;;;20.84;45.84
55460;BME280;41326;45.302;-122.946;2022-07-29T05:10:09;100502.20;;;20.83;45.96
55460;BME280;41326;45.302;-122.946;2022-07-29T05:12:38;100503.61;;;20.81;45.97
55460;BME280;41326;45.302;-122.946;2022-07-29T05:15:09;100504.26;;;20.77;45.76
55460;BME280;41326;45.302;-122.946;2022-07-29T05:17:39;100505.94;;;20.77;45.41
55460;BME280;41326;45.302;-122.946;2022-07-29T05:20:10;100504.62;;;20.72;45.81
55460;BME280;41326;45.302;-122.946;2022-07-29T05:22:40;100505.27;;;20.68;45.19
55460;BME280;41326;45.302;-122.946;2022-07-29T05:25:10;100504.59;;;20.61;45.33
55460;BME280;41326;45.302;-122.946;2022-07-29T05:27:41;100508.40;;;20.62;45.91
55460;BME280;41326;45.302;-122.946;2022-07-29T05:30:12;100507.50;;;20.58;45.37
55460;BME280;41326;45.302;-122.946;2022-07-29T05:32:41;100507.89;;;20.53;45.72
55460;BME280;41326;45.302;-122.946;2022-07-29T05:35:12;100513.41;;;20.49;45.55
55460;BME280;41326;45.302;-122.946;2022-07-29T05:37:42;100513.40;;;20.47;45.46
55460;BME280;41326;45.302;-122.946;2022-07-29T05:40:12;100514.04;;;20.41;45.78
55460;BME280;41326;45.302;-122.946;2022-07-29T05:42:42;100512.22;;;20.37;45.74
55460;BME280;41326;45.302;-122.946;2022-07-29T05:45:13;100517.08;;;20.38;46.00
55460;BME280;41326;45.302;-122.946;2022-07-29T05:47:44;100515.15;;;20.39;45.72
55460;BME280;41326;45.302;-122.946;2022-07-29T05:50:14;100515.85;;;20.36;45.93
55460;BME280;41326;45.302;-122.946;2022-07-29T05:52:44;100523.16;;;20.34;45.63
55460;BME280;41326;45.302;-122.946;2022-07-29T05:55:15;100520.04;;;20.31;45.87
55460;BME280;41326;45.302;-122.946;2022-07-29T05:57:45;100520.75;;;20.27;44.50
55460;BME280;41326;45.302;-122.946;2022-07-29T06:00:16;100518.95;;;20.27;45.86
55460;BME280;41326;45.302;-122.946;2022-07-29T06:02:45;100523.06;;;20.23;45.42
55460;BME280;41326;45.302;-122.946;2022-07-29T06:05:16;100522.54;;;20.18;45.74
55460;BME280;41326;45.302;-122.946;2022-07-29T06:07:46;100524.01;;;20.18;45.75
55460;BME280;41326;45.302;-122.946;2022-07-29T06:10:16;100524.81;;;20.15;45.67
55460;BME280;41326;45.302;-122.946;2022-07-29T06:12:46;100523.61;;;20.12;45.54
55460;BME280;41326;45.302;-122.946;2022-07-29T06:15:17;100523.32;;;20.06;45.85
55460;BME280;41326;45.302;-122.946;2022-07-29T06:17:47;100526.99;;;20.06;45.54
55460;BME280;41326;45.302;-122.946;2022-07-29T06:20:18;100528.02;;;20.07;45.75
55460;BME280;41326;45.302;-122.946;2022-07-29T06:22:47;100529.12;;;19.99;45.78
55460;BME280;41326;45.302;-122.946;2022-07-29T06:25:18;100530.70;;;19.99;45.65
55460;BME280;41326;45.302;-122.946;2022-07-29T06:27:48;100538.34;;;19.89;45.76
55460;BME280;41326;45.302;-122.946;2022-07-29T06:30:19;100542.01;;;19.93;46.10
55460;BME280;41326;45.302;-122.946;2022-07-29T06:32:49;100540.48;;;19.88;46.10
55460;BME280;41326;45.302;-122.946;2022-07-29T06:35:20;100539.12;;;19.86;45.56
55460;BME280;41326;45.302;-122.946;2022-07-29T06:37:50;100544.14;;;19.83;45.72
55460;BME280;41326;45.302;-122.946;2022-07-29T06:40:21;100545.62;;;19.83;45.45
55460;BME280;41326;45.302;-122.946;2022-07-29T06:42:50;100543.58;;;19.81;45.76
55460;BME280;41326;45.302;-122.946;2022-07-29T06:45:21;100543.66;;;19.76;45.40
55460;BME280;41326;45.302;-122.946;2022-07-29T06:47:52;100542.21;;;19.75;45.64
55460;BME280;41326;45.302;-122.946;2022-07-29T06:50:21;100545.90;;;19.73;45.58
55460;BME280;41326;45.302;-122.946;2022-07-29T06:52:52;100544.32;;;19.68;45.61
55460;BME280;41326;45.302;-122.946;2022-07-29T06:55:22;100545.32;;;19.68;45.12
55460;BME280;41326;45.302;-122.946;2022-07-29T06:57:52;100547.06;;;19.67;45.37
55460;BME280;41326;45.302;-122.946;2022-07-29T07:00:22;100548.62;;;19.67;45.37
55460;BME280;41326;45.302;-122.946;2022-07-29T07:02:53;100548.56;;;19.57;45.75
55460;BME280;41326;45.302;-122.946;2022-07-29T07:05:23;100551.45;;;19.60;45.48
55460;BME280;41326;45.302;-122.946;2022-07-29T07:07:54;100551.61;;;19.83;46.27
55460;BME280;41326;45.302;-122.946;2022-07-29T07:10:24;100549.58;;;20.02;46.62
55460;BME280;41326;45.302;-122.946;2022-07-29T07:12:54;100552.26;;;20.19;46.52
55460;BME280;41326;45.302;-122.946;2022-07-29T07:15:24;100557.13;;;20.05;44.29
55460;BME280;41326;45.302;-122.946;2022-07-29T07:17:55;100562.65;;;19.95;45.44
55460;BME280;41326;45.302;-122.946;2022-07-29T07:20:25;100560.96;;;19.82;45.73
55460;BME280;41326;45.302;-122.946;2022-07-29T07:22:56;100563.71;;;19.77;46.03
55460;BME280;41326;45.302;-122.946;2022-07-29T07:25:27;100566.84;;;19.71;45.88
55460;BME280;41326;45.302;-122.946;2022-07-29T07:27:56;100567.77;;;19.63;45.62
55460;BME280;41326;45.302;-122.946;2022-07-29T07:30:27;100565.98;;;19.61;45.51
55460;BME280;41326;45.302;-122.946;2022-07-29T07:32:57;100569.31;;;19.59;44.89
55460;BME280;41326;45.302;-122.946;2022-07-29T07:35:27;100571.97;;;19.53;44.79
55460;BME280;41326;45.302;-122.946;2022-07-29T07:37:57;100571.37;;;19.42;45.21
55460;BME280;41326;45.302;-122.946;2022-07-29T07:40:28;100571.12;;;19.38;45.76
55460;BME280;41326;45.302;-122.946;2022-07-29T07:42:58;100573.88;;;19.59;46.74
55460;BME280;41326;45.302;-122.946;2022-07-29T07:45:29;100573.59;;;19.75;46.96
55460;BME280;41326;45.302;-122.946;2022-07-29T07:48:00;100574.35;;;19.94;46.95
55460;BME280;41326;45.302;-122.946;2022-07-29T07:50:30;100570.96;;;20.08;46.32
55460;BME280;41326;45.302;-122.946;2022-07-29T07:53:01;100569.55;;;19.99;45.61
55460;BME280;41326;45.302;-122.946;2022-07-29T07:55:31;100567.47;;;19.83;43.97
55460;BME280;41326;45.302;-122.946;2022-07-29T07:58:01;100572.21;;;19.72;45.43
55460;BME280;41326;45.302;-122.946;2022-07-29T08:00:31;100569.85;;;19.66;45.36
55460;BME280;41326;45.302;-122.946;2022-07-29T08:03:01;100570.82;;;19.59;45.41
55460;BME280;41326;45.302;-122.946;2022-07-29T08:05:32;100572.75;;;19.54;45.30
55460;BME280;41326;45.302;-122.946;2022-07-29T08:08:02;100572.13;;;19.63;45.98
55460;BME280;41326;45.302;-122.946;2022-07-29T08:10:33;100575.19;;;19.83;46.16
55460;BME280;41326;45.302;-122.946;2022-07-29T08:13:03;100569.72;;;20.00;46.58
55460;BME280;41326;45.302;-122.946;2022-07-29T08:15:33;100571.36;;;20.18;47.26
55460;BME280;41326;45.302;-122.946;2022-07-29T08:18:03;100575.59;;;20.25;47.46
55460;BME280;41326;45.302;-122.946;2022-07-29T08:20:34;100576.31;;;20.28;47.75
55460;BME280;41326;45.302;-122.946;2022-07-29T08:23:05;100573.62;;;20.31;47.85
55460;BME280;41326;45.302;-122.946;2022-07-29T08:25:35;100572.11;;;20.37;47.99
55460;BME280;41326;45.302;-122.946;2022-07-29T08:28:05;100574.14;;;20.43;48.10
55460;BME280;41326;45.302;-122.946;2022-07-29T08:30:35;100572.48;;;20.45;48.37
55460;BME280;41326;45.302;-122.946;2022-07-29T08:33:05;100576.08;;;20.61;48.85
55460;BME280;41326;45.302;-122.946;2022-07-29T08:35:35;100578.97;;;20.71;49.26
55460;BME280;41326;45.302;-122.946;2022-07-29T08:38:05;100574.78;;;20.73;49.44
55460;BME280;41326;45.302;-122.946;2022-07-29T08:40:36;100570.08;;;20.70;49.70
55460;BME280;41326;45.302;-122.946;2022-07-29T08:43:10;100568.33;;;20.70;49.87
55460;BME280;41326;45.302;-122.946;2022-07-29T08:45:41;100575.87;;;20.68;50.12
55460;BME280;41326;45.302;-122.946;2022-07-29T08:48:07;100574.33;;;20.56;48.37
55460;BME280;41326;45.302;-122.946;2022-07-29T08:50:36;100576.45;;;20.43;47.79
55460;BME280;41326;45.302;-122.946;2022-07-29T08:53:07;100580.01;;;20.28;46.03
55460;BME280;41326;45.302;-122.946;2022-07-29T08:55:38;100584.86;;;20.16;46.74
55460;BME280;41326;45.302;-122.946;2022-07-29T08:58:07;100583.01;;;20.04;47.10
55460;BME280;41326;45.302;-122.946;2022-07-29T09:00:42;100583.66;;;19.89;46.72
55460;BME280;41326;45.302;-122.946;2022-07-29T09:03:10;100588.44;;;19.72;45.13
55460;BME280;41326;45.302;-122.946;2022-07-29T09:05:40;100584.23;;;19.65;46.28
55460;BME280;41326;45.302;-122.946;2022-07-29T09:08:10;100580.79;;;19.71;47.92
55460;BME280;41326;45.302;-122.946;2022-07-29T09:10:41;100587.30;;;19.92;47.78
55460;BME280;41326;45.302;-122.946;2022-07-29T09:13:09;100588.71;;;20.08;48.35
55460;BME280;41326;45.302;-122.946;2022-07-29T09:15:39;100589.66;;;20.24;49.07
55460;BME280;41326;45.302;-122.946;2022-07-29T09:18:10;100587.27;;;20.34;48.87
55460;BME280;41326;45.302;-122.946;2022-07-29T09:20:40;100592.12;;;20.36;49.05
55460;BME280;41326;45.302;-122.946;2022-07-29T09:23:14;100590.61;;;20.40;49.16
55460;BME280;41326;45.302;-122.946;2022-07-29T09:25:42;100590.41;;;20.46;49.15
55460;BME280;41326;45.302;-122.946;2022-07-29T09:28:12;100597.47;;;20.53;49.25
55460;BME280;41326;45.302;-122.946;2022-07-29T09:30:50;100600.75;;;20.58;49.26
55460;BME280;41326;45.302;-122.946;2022-07-29T09:33:12;100602.66;;;20.68;49.69
55460;BME280;41326;45.302;-122.946;2022-07-29T09:35:42;100604.99;;;20.65;50.50
55460;BME280;41326;45.302;-122.946;2022-07-29T09:38:16;100603.65;;;20.68;50.67
55460;BME280;41326;45.302;-122.946;2022-07-29T09:40:43;100604.51;;;20.68;50.73
55460;BME280;41326;45.302;-122.946;2022-07-29T09:43:16;100601.48;;;20.71;48.87
55460;BME280;41326;45.302;-122.946;2022-07-29T09:45:43;100600.87;;;20.50;48.11
55460;BME280;41326;45.302;-122.946;2022-07-29T09:48:18;100602.70;;;20.35;47.59
55460;BME280;41326;45.302;-122.946;2022-07-29T09:50:45;100604.70;;;20.14;47.46
55460;BME280;41326;45.302;-122.946;2022-07-29T09:55:48;100612.07;;;20.31;49.89
55460;BME280;41326;45.302;-122.946;2022-07-29T09:58:19;100614.40;;;20.33;50.29
55460;BME280;41326;45.302;-122.946;2022-07-29T10:00:48;100608.36;;;20.38;50.28
55460;BME280;41326;45.302;-122.946;2022-07-29T10:03:16;100610.80;;;20.46;50.22
55460;BME280;41326;45.302;-122.946;2022-07-29T10:05:46;100607.11;;;20.54;50.17
55460;BME280;41326;45.302;-122.946;2022-07-29T10:08:24;100606.49;;;20.60;50.12
55460;BME280;41326;45.302;-122.946;2022-07-29T10:10:48;100607.62;;;20.64;50.14
55460;BME280;41326;45.302;-122.946;2022-07-29T10:13:18;100607.47;;;20.67;50.79
55460;BME280;41326;45.302;-122.946;2022-07-29T10:15:48;100611.79;;;20.74;51.21
55460;BME280;41326;45.302;-122.946;2022-07-29T10:18:20;100612.42;;;20.73;51.38
55460;BME280;41326;45.302;-122.946;2022-07-29T10:20:47;100615.52;;;20.75;51.40
55460;BME280;41326;45.302;-122.946;2022-07-29T10:23:17;100613.80;;;20.77;51.39
55460;BME280;41326;45.302;-122.946;2022-07-29T10:25:48;100609.36;;;20.80;51.37
55460;BME280;41326;45.302;-122.946;2022-07-29T10:28:18;100610.62;;;20.81;51.51
55460;BME280;41326;45.302;-122.946;2022-07-29T10:30:49;100613.06;;;20.85;51.46
55460;BME280;41326;45.302;-122.946;2022-07-29T10:33:27;100612.93;;;20.85;52.07
55460;BME280;41326;45.302;-122.946;2022-07-29T10:36:04;100609.03;;;20.88;52.61
55460;BME280;41326;45.302;-122.946;2022-07-29T10:40:57;100610.29;;;20.92;52.58
55460;BME280;41326;45.302;-122.946;2022-07-29T10:43:24;100610.81;;;20.89;52.78
55460;BME280;41326;45.302;-122.946;2022-07-29T10:45:54;100611.30;;;20.90;52.87
55460;BME280;41326;45.302;-122.946;2022-07-29T10:48:21;100617.83;;;20.89;52.98
55460;BME280;41326;45.302;-122.946;2022-07-29T10:50:55;100618.15;;;20.92;52.94
55460;BME280;41326;45.302;-122.946;2022-07-29T10:53:21;100619.58;;;20.86;53.63
55460;BME280;41326;45.302;-122.946;2022-07-29T10:55:51;100623.88;;;20.93;53.94
55460;BME280;41326;45.302;-122.946;2022-07-29T10:58:22;100629.68;;;20.92;53.94
55460;BME280;41326;45.302;-122.946;2022-07-29T11:00:52;100632.17;;;20.94;53.92
55460;BME280;41326;45.302;-122.946;2022-07-29T11:05:56;100633.14;;;20.92;54.15
55460;BME280;41326;45.302;-122.946;2022-07-29T11:08:26;100634.86;;;20.94;54.10
55460;BME280;41326;45.302;-122.946;2022-07-29T11:11:30;100635.38;;;20.92;54.26
55460;BME280;41326;45.302;-122.946;2022-07-29T11:15:57;100641.10;;;21.03;51.03
55460;BME280;41326;45.302;-122.946;2022-07-29T11:18:24;100644.96;;;20.77;48.98
55460;BME280;41326;45.302;-122.946;2022-07-29T11:20:55;100648.48;;;20.53;48.06
55460;BME280;41326;45.302;-122.946;2022-07-29T11:23:27;100650.02;;;20.30;48.03
55460;BME280;41326;45.302;-122.946;2022-07-29T11:28:27;100652.95;;;20.12;51.35
55460;BME280;41326;45.302;-122.946;2022-07-29T11:30:58;100653.54;;;20.27;51.49
55460;BME280;41326;45.302;-122.946;2022-07-29T11:33:30;100651.17;;;20.43;52.20
55460;BME280;41326;45.302;-122.946;2022-07-29T11:38:30;100651.27;;;20.53;52.47
55460;BME280;41326;45.302;-122.946;2022-07-29T11:45:57;100656.62;;;20.61;52.51
55460;BME280;41326;45.302;-122.946;2022-07-29T11:48:29;100650.56;;;20.67;52.45
55460;BME280;41326;45.302;-122.946;2022-07-29T11:50:58;100650.22;;;20.70;52.45
55460;BME280;41326;45.302;-122.946;2022-07-29T11:53:28;100652.54;;;20.74;52.96
55460;BME280;41326;45.302;-122.946;2022-07-29T11:56:00;100653.79;;;20.78;53.44
55460;BME280;41326;45.302;-122.946;2022-07-29T11:58:28;100654.04;;;20.81;53.44
55460;BME280;41326;45.302;-122.946;2022-07-29T12:00:59;100651.23;;;20.82;53.40
55460;BME280;41326;45.302;-122.946;2022-07-29T12:03:30;100655.98;;;20.82;53.46
55460;BME280;41326;45.302;-122.946;2022-07-29T12:05:59;100658.94;;;20.83;53.48
55460;BME280;41326;45.302;-122.946;2022-07-29T12:08:29;100654.70;;;20.85;53.48
55460;BME280;41326;45.302;-122.946;2022-07-29T12:10:59;100652.99;;;20.87;53.54
55460;BME280;41326;45.302;-122.946;2022-07-29T12:13:30;100648.47;;;20.89;54.16
55460;BME280;41326;45.302;-122.946;2022-07-29T12:16:01;100649.99;;;20.85;54.65
55460;BME280;41326;45.302;-122.946;2022-07-29T12:18:31;100648.12;;;20.88;54.59
55460;BME280;41326;45.302;-122.946;2022-07-29T12:21:05;100652.43;;;20.91;54.48
55460;BME280;41326;45.302;-122.946;2022-07-29T12:23:32;100653.12;;;20.94;54.38
55460;BME280;41326;45.302;-122.946;2022-07-29T12:26:03;100654.50;;;20.95;54.42
55460;BME280;41326;45.302;-122.946;2022-07-29T12:28:32;100656.43;;;20.96;54.36
55460;BME280;41326;45.302;-122.946;2022-07-29T12:31:02;100658.27;;;20.93;54.59
55460;BME280;41326;45.302;-122.946;2022-07-29T12:33:34;100659.30;;;20.93;55.11
55460;BME280;41326;45.302;-122.946;2022-07-29T12:36:04;100659.00;;;20.96;55.42
55460;BME280;41326;45.302;-122.946;2022-07-29T12:38:34;100659.73;;;20.94;55.49
55460;BME280;41326;45.302;-122.946;2022-07-29T12:41:04;100656.15;;;20.95;55.43
55460;BME280;41326;45.302;-122.946;2022-07-29T12:43:34;100660.14;;;20.94;55.52
55460;BME280;41326;45.302;-122.946;2022-07-29T12:46:13;100661.87;;;20.92;55.64
55460;BME280;41326;45.302;-122.946;2022-07-29T12:48:40;100658.12;;;20.94;55.55
55460;BME280;41326;45.302;-122.946;2022-07-29T12:51:07;100659.31;;;20.95;55.64
55460;BME280;41326;45.302;-122.946;2022-07-29T12:53:37;100658.97;;;20.92;56.15
55460;BME280;41326;45.302;-122.946;2022-07-29T12:56:09;100659.28;;;20.96;56.26
55460;BME280;41326;45.302;-122.946;2022-07-29T12:58:39;100662.66;;;20.98;56.25
55460;BME280;41326;45.302;-122.946;2022-07-29T13:01:12;100660.45;;;21.01;56.16
55460;BME280;41326;45.302;-122.946;2022-07-29T13:03:42;100660.93;;;21.01;56.22